sensor_id;sensor_type;location;lat;lon;timestamp;P1;durP1;ratioP1;P2;durP2;ratioP2
45402;SDS011;47427;51.976;5.326;2023-08-07T00:02:50;19.50;;;17.40;;
45402;SDS011;47427;51.976;5.326;2023-08-07T00:05:53;24.52;;;17.83;;
45402;SDS011;47427;51.976;5.326;2023-08-07T00:08:57;20.50;;;18.40;;
45402;SDS011;47427;51.976;5.326;2023-08-07T00:11:59;25.35;;;17.52;;
45402;SDS011;47427;51.976;5.326;2023-08-07T00:15:03;26.27;;;17.77;;
45402;SDS011;47427;51.976;5.326;2023-08-07T00:18:06;21.67;;;17.73;;
45402;SDS011;47427;51.976;5.326;2023-08-07T00:21:09;24.88;;;18.63;;
45402;SDS011;47427;51.976;5.326;2023-08-07T00:24:11;23.25;;;17.85;;
45402;SDS011;47427;51.976;5.326;2023-08-07T00:27:14;22.15;;;17.65;;
45402;SDS011;47427;51.976;5.326;2023-08-07T00:30:17;19.90;;;17.95;;
45402;SDS011;47427;51.976;5.326;2023-08-07T00:33:20;20.27;;;17.65;;
45402;SDS011;47427;51.976;5.326;2023-08-07T00:36:22;19.10;;;17.17;;
45402;SDS011;47427;51.976;5.326;2023-08-07T00:39:25;25.67;;;18.30;;
45402;SDS011;47427;51.976;5.326;2023-08-07T00:42:28;22.33;;;18.33;;
45402;SDS011;47427;51.976;5.326;2023-08-07T00:45:34;23.40;;;17.27;;
45402;SDS011;47427;51.976;5.326;2023-08-07T00:48:44;18.23;;;16.50;;
45402;SDS011;47427;51.976;5.326;2023-08-07T00:51:47;19.50;;;17.65;;
45402;SDS011;47427;51.976;5.326;2023-08-07T00:54:50;18.90;;;16.83;;
45402;SDS011;47427;51.976;5.326;2023-08-07T00:57:56;19.33;;;17.20;;
45402;SDS011;47427;51.976;5.326;2023-08-07T01:01:00;19.75;;;16.92;;
45402;SDS011;47427;51.976;5.326;2023-08-07T01:04:03;19.90;;;18.02;;
45402;SDS011;47427;51.976;5.326;2023-08-07T01:07:06;19.60;;;17.65;;
45402;SDS011;47427;51.976;5.326;2023-08-07T01:10:09;20.17;;;18.10;;
45402;SDS011;47427;51.976;5.326;2023-08-07T01:13:16;18.77;;;17.30;;
45402;SDS011;47427;51.976;5.326;2023-08-07T01:16:28;18.55;;;16.73;;
45402;SDS011;47427;51.976;5.326;2023-08-07T01:19:51;19.90;;;17.00;;
45402;SDS011;47427;51.976;5.326;2023-08-07T01:22:54;19.00;;;17.10;;
45402;SDS011;47427;51.976;5.326;2023-08-07T01:25:56;18.38;;;16.65;;
45402;SDS011;47427;51.976;5.326;2023-08-07T01:32:18;19.38;;;17.33;;
45402;SDS011;47427;51.976;5.326;2023-08-07T01:35:33;19.25;;;17.23;;
45402;SDS011;47427;51.976;5.326;2023-08-07T01:38:50;19.08;;;17.00;;
45402;SDS011;47427;51.976;5.326;2023-08-07T01:41:55;25.20;;;18.50;;
45402;SDS011;47427;51.976;5.326;2023-08-07T01:44:58;20.88;;;18.08;;
45402;SDS011;47427;51.976;5.326;2023-08-07T01:48:01;26.65;;;18.17;;
45402;SDS011;47427;51.976;5.326;2023-08-07T01:51:03;21.77;;;17.40;;
45402;SDS011;47427;51.976;5.326;2023-08-07T01:54:05;20.17;;;18.20;;
45402;SDS011;47427;51.976;5.326;2023-08-07T01:57:08;18.63;;;16.73;;
45402;SDS011;47427;51.976;5.326;2023-08-07T02:00:11;20.73;;;17.63;;
45402;SDS011;47427;51.976;5.326;2023-08-07T02:03:16;20.63;;;17.73;;
45402;SDS011;47427;51.976;5.326;2023-08-07T02:06:19;19.15;;;17.27;;
45402;SDS011;47427;51.976;5.326;2023-08-07T02:09:22;18.10;;;16.58;;
45402;SDS011;47427;51.976;5.326;2023-08-07T02:12:25;19.25;;;17.27;;
45402;SDS011;47427;51.976;5.326;2023-08-07T02:15:27;20.00;;;16.67;;
45402;SDS011;47427;51.976;5.326;2023-08-07T02:18:30;19.95;;;16.80;;
45402;SDS011;47427;51.976;5.326;2023-08-07T02:21:33;21.77;;;17.58;;
45402;SDS011;47427;51.976;5.326;2023-08-07T02:24:36;22.92;;;18.23;;
45402;SDS011;47427;51.976;5.326;2023-08-07T02:27:40;22.10;;;18.63;;
45402;SDS011;47427;51.976;5.326;2023-08-07T02:30:44;21.15;;;16.80;;
45402;SDS011;47427;51.976;5.326;2023-08-07T02:33:50;25.05;;;17.05;;
45402;SDS011;47427;51.976;5.326;2023-08-07T02:36:53;22.52;;;18.10;;
45402;SDS011;47427;51.976;5.326;2023-08-07T02:39:56;31.58;;;18.40;;
45402;SDS011;47427;51.976;5.326;2023-08-07T02:42:57;20.42;;;17.25;;
45402;SDS011;47427;51.976;5.326;2023-08-07T02:46:00;19.30;;;16.77;;
45402;SDS011;47427;51.976;5.326;2023-08-07T02:49:03;23.02;;;17.40;;
45402;SDS011;47427;51.976;5.326;2023-08-07T02:52:06;23.27;;;17.33;;
45402;SDS011;47427;51.976;5.326;2023-08-07T02:55:08;21.52;;;19.20;;
45402;SDS011;47427;51.976;5.326;2023-08-07T02:58:11;20.33;;;18.35;;
45402;SDS011;47427;51.976;5.326;2023-08-07T03:01:14;23.20;;;17.33;;
45402;SDS011;47427;51.976;5.326;2023-08-07T03:04:17;25.15;;;17.73;;
45402;SDS011;47427;51.976;5.326;2023-08-07T03:07:19;19.05;;;17.33;;
45402;SDS011;47427;51.976;5.326;2023-08-07T03:10:22;20.25;;;18.08;;
45402;SDS011;47427;51.976;5.326;2023-08-07T03:13:25;21.27;;;17.83;;
45402;SDS011;47427;51.976;5.326;2023-08-07T03:16:28;20.00;;;17.02;;
45402;SDS011;47427;51.976;5.326;2023-08-07T03:19:30;28.05;;;17.63;;
45402;SDS011;47427;51.976;5.326;2023-08-07T03:22:33;23.83;;;17.73;;
45402;SDS011;47427;51.976;5.326;2023-08-07T03:25:36;24.45;;;17.80;;
45402;SDS011;47427;51.976;5.326;2023-08-07T03:28:39;26.05;;;20.05;;
45402;SDS011;47427;51.976;5.326;2023-08-07T03:31:41;21.00;;;18.90;;
45402;SDS011;47427;51.976;5.326;2023-08-07T03:34:45;27.27;;;20.52;;
45402;SDS011;47427;51.976;5.326;2023-08-07T03:37:49;23.33;;;20.80;;
45402;SDS011;47427;51.976;5.326;2023-08-07T03:40:52;24.88;;;20.17;;
45402;SDS011;47427;51.976;5.326;2023-08-07T03:43:53;26.02;;;20.98;;
45402;SDS011;47427;51.976;5.326;2023-08-07T03:46:56;22.67;;;20.27;;
45402;SDS011;47427;51.976;5.326;2023-08-07T03:50:00;23.73;;;20.33;;
45402;SDS011;47427;51.976;5.326;2023-08-07T03:53:04;21.95;;;20.10;;
45402;SDS011;47427;51.976;5.326;2023-08-07T03:56:27;22.27;;;20.23;;
45402;SDS011;47427;51.976;5.326;2023-08-07T03:59:30;21.65;;;19.60;;
45402;SDS011;47427;51.976;5.326;2023-08-07T04:02:32;22.92;;;20.48;;
45402;SDS011;47427;51.976;5.326;2023-08-07T04:05:35;22.98;;;20.73;;
45402;SDS011;47427;51.976;5.326;2023-08-07T04:08:38;23.60;;;21.35;;
45402;SDS011;47427;51.976;5.326;2023-08-07T04:11:40;24.23;;;21.92;;
45402;SDS011;47427;51.976;5.326;2023-08-07T04:14:43;25.73;;;22.58;;
45402;SDS011;47427;51.976;5.326;2023-08-07T04:17:46;28.98;;;21.90;;
45402;SDS011;47427;51.976;5.326;2023-08-07T04:20:58;24.85;;;22.27;;
45402;SDS011;47427;51.976;5.326;2023-08-07T04:23:59;24.60;;;22.13;;
45402;SDS011;47427;51.976;5.326;2023-08-07T04:27:02;23.55;;;20.88;;
45402;SDS011;47427;51.976;5.326;2023-08-07T04:30:06;29.75;;;21.52;;
45402;SDS011;47427;51.976;5.326;2023-08-07T04:33:10;22.08;;;19.88;;
45402;SDS011;47427;51.976;5.326;2023-08-07T04:36:12;22.73;;;20.02;;
45402;SDS011;47427;51.976;5.326;2023-08-07T04:39:14;21.23;;;19.38;;
45402;SDS011;47427;51.976;5.326;2023-08-07T04:42:17;23.40;;;18.70;;
45402;SDS011;47427;51.976;5.326;2023-08-07T04:45:20;22.48;;;20.23;;
45402;SDS011;47427;51.976;5.326;2023-08-07T04:48:22;24.10;;;19.50;;
45402;SDS011;47427;51.976;5.326;2023-08-07T04:51:27;22.52;;;20.20;;
45402;SDS011;47427;51.976;5.326;2023-08-07T04:54:31;23.27;;;20.02;;
45402;SDS011;47427;51.976;5.326;2023-08-07T04:57:33;23.88;;;20.65;;
45402;SDS011;47427;51.976;5.326;2023-08-07T05:00:35;23.35;;;21.02;;
45402;SDS011;47427;51.976;5.326;2023-08-07T05:03:38;28.48;;;21.75;;
45402;SDS011;47427;51.976;5.326;2023-08-07T05:06:41;24.02;;;21.45;;
45402;SDS011;47427;51.976;5.326;2023-08-07T05:09:44;23.13;;;20.63;;
45402;SDS011;47427;51.976;5.326;2023-08-07T05:12:46;23.67;;;21.10;;
45402;SDS011;47427;51.976;5.326;2023-08-07T05:15:49;23.83;;;20.20;;
45402;SDS011;47427;51.976;5.326;2023-08-07T05:18:52;24.88;;;20.75;;
45402;SDS011;47427;51.976;5.326;2023-08-07T05:21:55;25.15;;;20.45;;
45402;SDS011;47427;51.976;5.326;2023-08-07T05:24:57;27.30;;;20.73;;
45402;SDS011;47427;51.976;5.326;2023-08-07T05:27:59;30.23;;;21.77;;
45402;SDS011;47427;51.976;5.326;2023-08-07T05:31:02;22.55;;;20.27;;
45402;SDS011;47427;51.976;5.326;2023-08-07T05:34:23;23.48;;;21.00;;
45402;SDS011;47427;51.976;5.326;2023-08-07T05:37:26;23.98;;;20.60;;
45402;SDS011;47427;51.976;5.326;2023-08-07T05:40:29;23.20;;;20.80;;
45402;SDS011;47427;51.976;5.326;2023-08-07T05:43:32;23.33;;;20.95;;
45402;SDS011;47427;51.976;5.326;2023-08-07T05:46:35;25.60;;;21.30;;
45402;SDS011;47427;51.976;5.326;2023-08-07T05:49:36;27.08;;;22.65;;
45402;SDS011;47427;51.976;5.326;2023-08-07T05:52:39;34.13;;;21.75;;
45402;SDS011;47427;51.976;5.326;2023-08-07T05:55:42;22.25;;;20.13;;
45402;SDS011;47427;51.976;5.326;2023-08-07T05:58:45;24.63;;;21.17;;
45402;SDS011;47427;51.976;5.326;2023-08-07T06:01:46;23.73;;;21.20;;
45402;SDS011;47427;51.976;5.326;2023-08-07T06:04:49;23.65;;;21.30;;
45402;SDS011;47427;51.976;5.326;2023-08-07T06:07:52;24.08;;;21.42;;
45402;SDS011;47427;51.976;5.326;2023-08-07T06:10:55;23.65;;;21.25;;
45402;SDS011;47427;51.976;5.326;2023-08-07T06:13:57;29.40;;;23.00;;
45402;SDS011;47427;51.976;5.326;2023-08-07T06:16:59;23.25;;;21.20;;
45402;SDS011;47427;51.976;5.326;2023-08-07T06:20:03;27.23;;;22.17;;
45402;SDS011;47427;51.976;5.326;2023-08-07T06:23:11;23.75;;;21.38;;
45402;SDS011;47427;51.976;5.326;2023-08-07T06:26:13;23.35;;;21.08;;
45402;SDS011;47427;51.976;5.326;2023-08-07T06:29:16;24.58;;;22.02;;
45402;SDS011;47427;51.976;5.326;2023-08-07T06:32:18;24.23;;;21.10;;
45402;SDS011;47427;51.976;5.326;2023-08-07T06:35:21;22.40;;;20.10;;
45402;SDS011;47427;51.976;5.326;2023-08-07T06:38:23;23.63;;;21.15;;
45402;SDS011;47427;51.976;5.326;2023-08-07T06:41:26;23.00;;;20.05;;
45402;SDS011;47427;51.976;5.326;2023-08-07T06:44:29;23.98;;;21.77;;
45402;SDS011;47427;51.976;5.326;2023-08-07T06:47:32;23.77;;;21.30;;
45402;SDS011;47427;51.976;5.326;2023-08-07T06:50:33;23.45;;;21.13;;
45402;SDS011;47427;51.976;5.326;2023-08-07T06:53:36;21.73;;;19.95;;
45402;SDS011;47427;51.976;5.326;2023-08-07T06:56:39;21.17;;;19.33;;
45402;SDS011;47427;51.976;5.326;2023-08-07T06:59:44;21.30;;;19.30;;
45402;SDS011;47427;51.976;5.326;2023-08-07T07:02:46;20.98;;;18.92;;
45402;SDS011;47427;51.976;5.326;2023-08-07T07:05:49;20.08;;;18.40;;
45402;SDS011;47427;51.976;5.326;2023-08-07T07:08:52;21.65;;;19.48;;
45402;SDS011;47427;51.976;5.326;2023-08-07T07:11:58;20.75;;;17.67;;
45402;SDS011;47427;51.976;5.326;2023-08-07T07:15:00;19.13;;;17.25;;
45402;SDS011;47427;51.976;5.326;2023-08-07T07:18:04;21.23;;;19.08;;
45402;SDS011;47427;51.976;5.326;2023-08-07T07:21:07;25.90;;;19.25;;
45402;SDS011;47427;51.976;5.326;2023-08-07T07:24:10;21.10;;;19.25;;
45402;SDS011;47427;51.976;5.326;2023-08-07T07:27:13;22.23;;;19.52;;
45402;SDS011;47427;51.976;5.326;2023-08-07T07:30:15;26.50;;;19.77;;
45402;SDS011;47427;51.976;5.326;2023-08-07T07:33:18;21.92;;;19.23;;
45402;SDS011;47427;51.976;5.326;2023-08-07T07:36:21;28.83;;;19.95;;
45402;SDS011;47427;51.976;5.326;2023-08-07T07:39:24;30.20;;;20.30;;
45402;SDS011;47427;51.976;5.326;2023-08-07T07:42:26;26.52;;;21.60;;
45402;SDS011;47427;51.976;5.326;2023-08-07T07:45:29;22.33;;;19.98;;
45402;SDS011;47427;51.976;5.326;2023-08-07T07:48:32;26.92;;;19.13;;
45402;SDS011;47427;51.976;5.326;2023-08-07T07:51:34;24.10;;;20.10;;
45402;SDS011;47427;51.976;5.326;2023-08-07T07:54:37;20.70;;;18.30;;
45402;SDS011;47427;51.976;5.326;2023-08-07T07:57:40;26.77;;;20.55;;
45402;SDS011;47427;51.976;5.326;2023-08-07T08:00:43;21.13;;;19.00;;
45402;SDS011;47427;51.976;5.326;2023-08-07T08:03:46;34.00;;;19.83;;
45402;SDS011;47427;51.976;5.326;2023-08-07T08:06:47;22.42;;;18.20;;
45402;SDS011;47427;51.976;5.326;2023-08-07T08:09:50;18.67;;;16.88;;
45402;SDS011;47427;51.976;5.326;2023-08-07T08:12:57;22.23;;;19.88;;
45402;SDS011;47427;51.976;5.326;2023-08-07T08:15:59;23.40;;;19.00;;
45402;SDS011;47427;51.976;5.326;2023-08-07T08:19:01;19.95;;;17.33;;
45402;SDS011;47427;51.976;5.326;2023-08-07T08:22:04;22.17;;;17.55;;
45402;SDS011;47427;51.976;5.326;2023-08-07T08:25:07;20.30;;;18.20;;
45402;SDS011;47427;51.976;5.326;2023-08-07T08:28:11;19.60;;;17.90;;
45402;SDS011;47427;51.976;5.326;2023-08-07T08:31:13;18.88;;;17.05;;
45402;SDS011;47427;51.976;5.326;2023-08-07T08:34:16;17.63;;;15.85;;
45402;SDS011;47427;51.976;5.326;2023-08-07T08:37:18;16.20;;;14.95;;
45402;SDS011;47427;51.976;5.326;2023-08-07T08:40:21;19.20;;;17.17;;
45402;SDS011;47427;51.976;5.326;2023-08-07T08:43:24;16.83;;;15.13;;
45402;SDS011;47427;51.976;5.326;2023-08-07T08:46:29;15.85;;;14.40;;
45402;SDS011;47427;51.976;5.326;2023-08-07T08:49:35;19.33;;;16.80;;
45402;SDS011;47427;51.976;5.326;2023-08-07T08:52:45;19.55;;;17.73;;
45402;SDS011;47427;51.976;5.326;2023-08-07T08:55:47;17.40;;;15.52;;
45402;SDS011;47427;51.976;5.326;2023-08-07T08:58:50;18.42;;;16.55;;
45402;SDS011;47427;51.976;5.326;2023-08-07T09:01:54;19.60;;;17.55;;
45402;SDS011;47427;51.976;5.326;2023-08-07T09:04:57;17.45;;;15.68;;
45402;SDS011;47427;51.976;5.326;2023-08-07T09:07:58;19.00;;;15.88;;
45402;SDS011;47427;51.976;5.326;2023-08-07T09:11:02;19.00;;;17.10;;
45402;SDS011;47427;51.976;5.326;2023-08-07T09:14:06;16.55;;;14.95;;
45402;SDS011;47427;51.976;5.326;2023-08-07T09:17:11;19.73;;;15.65;;
45402;SDS011;47427;51.976;5.326;2023-08-07T09:20:14;17.25;;;15.35;;
45402;SDS011;47427;51.976;5.326;2023-08-07T09:23:17;17.38;;;15.65;;
45402;SDS011;47427;51.976;5.326;2023-08-07T09:26:23;17.25;;;15.68;;
45402;SDS011;47427;51.976;5.326;2023-08-07T09:29:26;20.08;;;16.20;;
45402;SDS011;47427;51.976;5.326;2023-08-07T09:32:28;18.13;;;15.95;;
45402;SDS011;47427;51.976;5.326;2023-08-07T09:35:32;17.55;;;15.70;;
45402;SDS011;47427;51.976;5.326;2023-08-07T09:38:35;17.60;;;15.88;;
45402;SDS011;47427;51.976;5.326;2023-08-07T09:41:38;20.25;;;16.10;;
45402;SDS011;47427;51.976;5.326;2023-08-07T09:44:41;17.13;;;15.52;;
45402;SDS011;47427;51.976;5.326;2023-08-07T09:47:46;21.60;;;15.13;;
45402;SDS011;47427;51.976;5.326;2023-08-07T09:51:00;18.38;;;16.40;;
45402;SDS011;47427;51.976;5.326;2023-08-07T09:54:06;16.70;;;15.05;;
45402;SDS011;47427;51.976;5.326;2023-08-07T09:57:27;17.83;;;16.05;;
45402;SDS011;47427;51.976;5.326;2023-08-07T10:00:34;22.52;;;16.60;;
45402;SDS011;47427;51.976;5.326;2023-08-07T10:03:40;15.82;;;14.27;;
45402;SDS011;47427;51.976;5.326;2023-08-07T10:06:43;17.02;;;15.63;;
45402;SDS011;47427;51.976;5.326;2023-08-07T10:09:46;20.80;;;15.20;;
45402;SDS011;47427;51.976;5.326;2023-08-07T10:12:49;16.98;;;15.27;;
45402;SDS011;47427;51.976;5.326;2023-08-07T10:15:53;17.30;;;15.52;;
45402;SDS011;47427;51.976;5.326;2023-08-07T10:18:56;17.80;;;15.98;;
45402;SDS011;47427;51.976;5.326;2023-08-07T10:21:57;18.50;;;16.38;;
45402;SDS011;47427;51.976;5.326;2023-08-07T10:25:01;20.17;;;15.45;;
45402;SDS011;47427;51.976;5.326;2023-08-07T10:28:06;16.33;;;15.02;;
45402;SDS011;47427;51.976;5.326;2023-08-07T10:31:14;20.58;;;15.25;;
45402;SDS011;47427;51.976;5.326;2023-08-07T10:34:15;16.50;;;14.98;;
45402;SDS011;47427;51.976;5.326;2023-08-07T10:41:05;21.35;;;16.02;;
45402;SDS011;47427;51.976;5.326;2023-08-07T10:44:21;17.55;;;15.20;;
45402;SDS011;47427;51.976;5.326;2023-08-07T10:47:34;17.60;;;16.00;;
45402;SDS011;47427;51.976;5.326;2023-08-07T10:54:01;15.32;;;14.20;;
45402;SDS011;47427;51.976;5.326;2023-08-07T10:57:03;17.27;;;14.90;;
45402;SDS011;47427;51.976;5.326;2023-08-07T11:00:11;15.68;;;14.38;;
45402;SDS011;47427;51.976;5.326;2023-08-07T11:03:27;16.92;;;15.18;;
45402;SDS011;47427;51.976;5.326;2023-08-07T11:06:31;16.75;;;14.73;;
45402;SDS011;47427;51.976;5.326;2023-08-07T11:09:34;17.63;;;15.93;;
45402;SDS011;47427;51.976;5.326;2023-08-07T11:12:37;16.25;;;14.63;;
45402;SDS011;47427;51.976;5.326;2023-08-07T11:15:40;16.92;;;15.13;;
45402;SDS011;47427;51.976;5.326;2023-08-07T11:18:43;18.50;;;15.38;;
45402;SDS011;47427;51.976;5.326;2023-08-07T11:21:45;17.02;;;15.52;;
45402;SDS011;47427;51.976;5.326;2023-08-07T11:24:49;19.70;;;17.80;;
45402;SDS011;47427;51.976;5.326;2023-08-07T11:27:53;16.50;;;14.98;;
45402;SDS011;47427;51.976;5.326;2023-08-07T11:30:56;15.07;;;13.88;;
45402;SDS011;47427;51.976;5.326;2023-08-07T11:33:59;16.27;;;14.68;;
45402;SDS011;47427;51.976;5.326;2023-08-07T11:37:04;15.85;;;14.55;;
45402;SDS011;47427;51.976;5.326;2023-08-07T11:40:07;16.73;;;15.02;;
45402;SDS011;47427;51.976;5.326;2023-08-07T11:43:11;16.30;;;14.90;;
45402;SDS011;47427;51.976;5.326;2023-08-07T11:46:13;18.50;;;16.58;;
45402;SDS011;47427;51.976;5.326;2023-08-07T11:49:18;16.85;;;15.25;;
45402;SDS011;47427;51.976;5.326;2023-08-07T11:52:22;17.85;;;15.63;;
45402;SDS011;47427;51.976;5.326;2023-08-07T11:55:27;20.02;;;14.90;;
45402;SDS011;47427;51.976;5.326;2023-08-07T11:58:34;15.70;;;14.20;;
45402;SDS011;47427;51.976;5.326;2023-08-07T12:01:46;15.13;;;13.45;;
45402;SDS011;47427;51.976;5.326;2023-08-07T12:04:49;19.42;;;17.60;;
45402;SDS011;47427;51.976;5.326;2023-08-07T12:07:51;18.10;;;16.45;;
45402;SDS011;47427;51.976;5.326;2023-08-07T12:10:54;16.58;;;14.88;;
45402;SDS011;47427;51.976;5.326;2023-08-07T12:13:59;17.02;;;15.43;;
45402;SDS011;47427;51.976;5.326;2023-08-07T12:17:03;18.40;;;16.58;;
45402;SDS011;47427;51.976;5.326;2023-08-07T12:20:07;15.82;;;14.52;;
45402;SDS011;47427;51.976;5.326;2023-08-07T12:23:14;16.45;;;15.25;;
45402;SDS011;47427;51.976;5.326;2023-08-07T12:26:18;15.48;;;14.32;;
45402;SDS011;47427;51.976;5.326;2023-08-07T12:29:21;14.32;;;13.23;;
45402;SDS011;47427;51.976;5.326;2023-08-07T12:32:25;16.08;;;14.85;;
45402;SDS011;47427;51.976;5.326;2023-08-07T12:35:27;16.88;;;15.65;;
45402;SDS011;47427;51.976;5.326;2023-08-07T12:38:30;18.52;;;16.77;;
45402;SDS011;47427;51.976;5.326;2023-08-07T12:41:33;16.75;;;15.57;;
45402;SDS011;47427;51.976;5.326;2023-08-07T12:44:36;16.98;;;15.57;;
45402;SDS011;47427;51.976;5.326;2023-08-07T12:47:38;16.77;;;15.52;;
45402;SDS011;47427;51.976;5.326;2023-08-07T12:50:42;17.38;;;16.00;;
45402;SDS011;47427;51.976;5.326;2023-08-07T12:53:45;17.38;;;15.88;;
45402;SDS011;47427;51.976;5.326;2023-08-07T12:56:49;17.80;;;16.40;;
45402;SDS011;47427;51.976;5.326;2023-08-07T12:59:51;17.63;;;16.02;;
45402;SDS011;47427;51.976;5.326;2023-08-07T13:02:54;14.43;;;13.13;;
45402;SDS011;47427;51.976;5.326;2023-08-07T13:05:57;14.83;;;13.60;;
45402;SDS011;47427;51.976;5.326;2023-08-07T13:09:18;16.45;;;15.25;;
45402;SDS011;47427;51.976;5.326;2023-08-07T13:12:22;15.73;;;14.37;;
45402;SDS011;47427;51.976;5.326;2023-08-07T13:15:25;15.65;;;14.45;;
45402;SDS011;47427;51.976;5.326;2023-08-07T13:18:28;16.40;;;15.30;;
45402;SDS011;47427;51.976;5.326;2023-08-07T13:21:31;15.20;;;14.20;;
45402;SDS011;47427;51.976;5.326;2023-08-07T13:24:32;14.70;;;13.45;;
45402;SDS011;47427;51.976;5.326;2023-08-07T13:27:35;14.18;;;13.05;;
45402;SDS011;47427;51.976;5.326;2023-08-07T13:30:39;16.55;;;15.48;;
45402;SDS011;47427;51.976;5.326;2023-08-07T13:33:43;15.30;;;14.27;;
45402;SDS011;47427;51.976;5.326;2023-08-07T13:36:44;16.13;;;15.10;;
45402;SDS011;47427;51.976;5.326;2023-08-07T13:39:47;14.65;;;13.75;;
45402;SDS011;47427;51.976;5.326;2023-08-07T13:42:51;14.82;;;13.80;;
45402;SDS011;47427;51.976;5.326;2023-08-07T13:45:55;13.85;;;13.05;;
45402;SDS011;47427;51.976;5.326;2023-08-07T13:48:57;14.77;;;13.75;;
45402;SDS011;47427;51.976;5.326;2023-08-07T13:52:00;14.73;;;13.83;;
45402;SDS011;47427;51.976;5.326;2023-08-07T13:55:03;13.80;;;12.80;;
45402;SDS011;47427;51.976;5.326;2023-08-07T13:58:06;13.90;;;12.90;;
45402;SDS011;47427;51.976;5.326;2023-08-07T14:01:10;15.87;;;14.70;;
45402;SDS011;47427;51.976;5.326;2023-08-07T14:04:13;16.10;;;14.40;;
45402;SDS011;47427;51.976;5.326;2023-08-07T14:07:16;16.48;;;15.07;;
45402;SDS011;47427;51.976;5.326;2023-08-07T14:10:19;15.70;;;14.48;;
45402;SDS011;47427;51.976;5.326;2023-08-07T14:13:21;15.63;;;14.15;;
45402;SDS011;47427;51.976;5.326;2023-08-07T14:16:27;13.68;;;12.68;;
45402;SDS011;47427;51.976;5.326;2023-08-07T14:19:30;12.63;;;11.82;;
45402;SDS011;47427;51.976;5.326;2023-08-07T14:22:33;13.00;;;12.15;;
45402;SDS011;47427;51.976;5.326;2023-08-07T14:25:38;13.30;;;12.38;;
45402;SDS011;47427;51.976;5.326;2023-08-07T14:28:40;13.25;;;12.07;;
45402;SDS011;47427;51.976;5.326;2023-08-07T14:31:43;13.38;;;12.05;;
45402;SDS011;47427;51.976;5.326;2023-08-07T14:34:45;16.73;;;15.30;;
45402;SDS011;47427;51.976;5.326;2023-08-07T14:37:49;14.20;;;13.30;;
45402;SDS011;47427;51.976;5.326;2023-08-07T14:40:51;17.13;;;15.75;;
45402;SDS011;47427;51.976;5.326;2023-08-07T14:43:54;15.13;;;13.75;;
45402;SDS011;47427;51.976;5.326;2023-08-07T14:46:57;13.65;;;12.55;;
45402;SDS011;47427;51.976;5.326;2023-08-07T14:50:00;14.38;;;12.95;;
45402;SDS011;47427;51.976;5.326;2023-08-07T14:53:03;14.32;;;13.20;;
45402;SDS011;47427;51.976;5.326;2023-08-07T14:56:04;15.27;;;13.63;;
45402;SDS011;47427;51.976;5.326;2023-08-07T14:59:07;14.55;;;13.55;;
45402;SDS011;47427;51.976;5.326;2023-08-07T15:02:13;14.98;;;13.68;;
45402;SDS011;47427;51.976;5.326;2023-08-07T15:05:16;14.48;;;13.38;;
45402;SDS011;47427;51.976;5.326;2023-08-07T15:08:18;13.32;;;12.32;;
45402;SDS011;47427;51.976;5.326;2023-08-07T15:11:20;14.30;;;12.90;;
45402;SDS011;47427;51.976;5.326;2023-08-07T15:14:23;13.50;;;12.70;;
45402;SDS011;47427;51.976;5.326;2023-08-07T15:17:26;13.95;;;12.93;;
45402;SDS011;47427;51.976;5.326;2023-08-07T15:20:27;14.38;;;13.00;;
45402;SDS011;47427;51.976;5.326;2023-08-07T15:23:30;14.32;;;13.38;;
45402;SDS011;47427;51.976;5.326;2023-08-07T15:26:33;14.85;;;13.50;;
45402;SDS011;47427;51.976;5.326;2023-08-07T15:29:36;15.55;;;14.40;;
45402;SDS011;47427;51.976;5.326;2023-08-07T15:32:42;16.08;;;14.55;;
45402;SDS011;47427;51.976;5.326;2023-08-07T15:35:45;15.13;;;14.15;;
45402;SDS011;47427;51.976;5.326;2023-08-07T15:38:47;15.15;;;14.05;;
45402;SDS011;47427;51.976;5.326;2023-08-07T15:41:50;15.68;;;14.27;;
45402;SDS011;47427;51.976;5.326;2023-08-07T15:44:52;14.93;;;13.93;;
45402;SDS011;47427;51.976;5.326;2023-08-07T15:47:55;14.98;;;13.45;;
45402;SDS011;47427;51.976;5.326;2023-08-07T15:50:58;13.25;;;12.45;;
45402;SDS011;47427;51.976;5.326;2023-08-07T15:54:01;14.80;;;13.90;;
45402;SDS011;47427;51.976;5.326;2023-08-07T15:57:03;14.98;;;13.93;;
45402;SDS011;47427;51.976;5.326;2023-08-07T16:00:06;14.50;;;13.40;;
45402;SDS011;47427;51.976;5.326;2023-08-07T16:03:14;13.75;;;12.82;;
45402;SDS011;47427;51.976;5.326;2023-08-07T16:06:19;13.43;;;12.45;;
45402;SDS011;47427;51.976;5.326;2023-08-07T16:09:20;14.00;;;12.80;;
45402;SDS011;47427;51.976;5.326;2023-08-07T16:12:23;13.68;;;12.75;;
45402;SDS011;47427;51.976;5.326;2023-08-07T16:15:26;14.90;;;13.70;;
45402;SDS011;47427;51.976;5.326;2023-08-07T16:18:47;13.73;;;12.90;;
45402;SDS011;47427;51.976;5.326;2023-08-07T16:21:50;12.30;;;11.57;;
45402;SDS011;47427;51.976;5.326;2023-08-07T16:24:53;13.07;;;12.00;;
45402;SDS011;47427;51.976;5.326;2023-08-07T16:27:55;13.63;;;12.50;;
45402;SDS011;47427;51.976;5.326;2023-08-07T16:30:58;14.32;;;13.30;;
45402;SDS011;47427;51.976;5.326;2023-08-07T16:34:00;15.15;;;14.23;;
45402;SDS011;47427;51.976;5.326;2023-08-07T16:37:03;14.07;;;13.25;;
45402;SDS011;47427;51.976;5.326;2023-08-07T16:40:06;14.35;;;13.32;;
45402;SDS011;47427;51.976;5.326;2023-08-07T16:43:09;14.80;;;13.70;;
45402;SDS011;47427;51.976;5.326;2023-08-07T16:46:11;14.38;;;13.45;;
45402;SDS011;47427;51.976;5.326;2023-08-07T16:49:14;14.45;;;13.27;;
45402;SDS011;47427;51.976;5.326;2023-08-07T16:52:17;14.20;;;13.18;;
45402;SDS011;47427;51.976;5.326;2023-08-07T16:55:20;15.55;;;14.00;;
45402;SDS011;47427;51.976;5.326;2023-08-07T16:58:23;14.63;;;13.50;;
45402;SDS011;47427;51.976;5.326;2023-08-07T17:01:26;14.10;;;13.10;;
45402;SDS011;47427;51.976;5.326;2023-08-07T17:04:28;14.27;;;13.15;;
45402;SDS011;47427;51.976;5.326;2023-08-07T17:07:34;13.88;;;12.80;;
45402;SDS011;47427;51.976;5.326;2023-08-07T17:10:37;14.07;;;12.90;;
45402;SDS011;47427;51.976;5.326;2023-08-07T17:13:39;13.93;;;13.13;;
45402;SDS011;47427;51.976;5.326;2023-08-07T17:16:42;14.43;;;13.27;;
45402;SDS011;47427;51.976;5.326;2023-08-07T17:19:45;14.13;;;13.05;;
45402;SDS011;47427;51.976;5.326;2023-08-07T17:22:48;14.25;;;13.10;;
45402;SDS011;47427;51.976;5.326;2023-08-07T17:25:51;14.98;;;13.65;;
45402;SDS011;47427;51.976;5.326;2023-08-07T17:28:54;14.70;;;13.57;;
45402;SDS011;47427;51.976;5.326;2023-08-07T17:32:01;14.65;;;13.45;;
45402;SDS011;47427;51.976;5.326;2023-08-07T17:35:05;14.50;;;13.55;;
45402;SDS011;47427;51.976;5.326;2023-08-07T17:38:08;14.05;;;13.10;;
45402;SDS011;47427;51.976;5.326;2023-08-07T17:41:11;12.82;;;12.13;;
45402;SDS011;47427;51.976;5.326;2023-08-07T17:44:14;13.70;;;12.70;;
45402;SDS011;47427;51.976;5.326;2023-08-07T17:47:19;13.45;;;12.65;;
45402;SDS011;47427;51.976;5.326;2023-08-07T17:50:21;12.27;;;11.68;;
45402;SDS011;47427;51.976;5.326;2023-08-07T17:53:25;13.65;;;12.85;;
45402;SDS011;47427;51.976;5.326;2023-08-07T17:56:46;13.32;;;12.45;;
45402;SDS011;47427;51.976;5.326;2023-08-07T17:59:51;15.70;;;14.73;;
45402;SDS011;47427;51.976;5.326;2023-08-07T18:02:54;13.50;;;12.35;;
45402;SDS011;47427;51.976;5.326;2023-08-07T18:05:56;14.60;;;13.40;;